sensor_id;sensor_type;location;lat;lon;timestamp;pressure;altitude;pressure_sealevel;temperature;humidity
44309;BME280;30022;55.846;37.340;2023-06-01T00:03:04;99122.31;;;-143.51;100.00
44309;BME280;30022;55.846;37.340;2023-06-01T00:05:42;99122.31;;;-143.51;100.00
44309;BME280;30022;55.846;37.340;2023-06-01T00:08:07;99378.44;;;-143.51;100.00
44309;BME280;30022;55.846;37.340;2023-06-01T00:10:33;98866.19;;;-143.51;100.00
44309;BME280;30022;55.846;37.340;2023-06-01T00:12:59;98610.09;;;-143.51;100.00
44309;BME280;30022;55.846;37.340;2023-06-01T00:15:25;98354.00;;;-143.51;100.00
44309;BME280;30022;55.846;37.340;2023-06-01T00:17:51;97585.88;;;-143.51;100.00
44309;BME280;30022;55.846;37.340;2023-06-01T00:20:17;97841.91;;;-143.51;100.00
44309;BME280;30022;55.846;37.340;2023-06-01T00:22:43;97073.84;;;-143.51;100.00
44309;BME280;30022;55.846;37.340;2023-06-01T00:25:09;97073.84;;;-143.51;100.00
44309;BME280;30022;55.846;37.340;2023-06-01T00:27:35;96817.88;;;-143.51;100.00
44309;BME280;30022;55.846;37.340;2023-06-01T00:30:01;96050.03;;;-143.51;100.00
44309;BME280;30022;55.846;37.340;2023-06-01T00:32:29;96050.03;;;-143.51;100.00
44309;BME280;30022;55.846;37.340;2023-06-01T00:34:54;95794.09;;;-143.51;100.00
44309;BME280;30022;55.846;37.340;2023-06-01T00:37:20;95794.09;;;-143.51;100.00
44309;BME280;30022;55.846;37.340;2023-06-01T00:39:46;96050.03;;;-143.51;100.00
44309;BME280;30022;55.846;37.340;2023-06-01T00:42:12;95538.22;;;-143.51;100.00
44309;BME280;30022;55.846;37.340;2023-06-01T00:44:37;95282.31;;;-143.51;100.00
44309;BME280;30022;55.846;37.340;2023-06-01T00:47:03;95026.44;;;-143.51;100.00
44309;BME280;30022;55.846;37.340;2023-06-01T00:49:30;94258.94;;;-143.51;100.00
44309;BME280;30022;55.846;37.340;2023-06-01T00:51:55;93235.81;;;-143.51;100.00
44309;BME280;30022;55.846;37.340;2023-06-01T00:54:21;92724.34;;;-143.51;100.00
44309;BME280;30022;55.846;37.340;2023-06-01T00:56:46;92980.09;;;-143.51;100.00
44309;BME280;30022;55.846;37.340;2023-06-01T00:59:12;92724.34;;;-143.51;100.00
44309;BME280;30022;55.846;37.340;2023-06-01T01:01:38;91957.28;;;-143.51;100.00
44309;BME280;30022;55.846;37.340;2023-06-01T01:04:06;91957.28;;;-143.51;100.00
44309;BME280;30022;55.846;37.340;2023-06-01T01:09:22;90934.75;;;-143.51;100.00
44309;BME280;30022;55.846;37.340;2023-06-01T01:11:51;88634.97;;;-143.51;100.00
44309;BME280;30022;55.846;37.340;2023-06-01T01:17:18;87768.91;;;-143.51;100.00
44309;BME280;30022;55.846;37.340;2023-06-01T01:26:08;84816.94;;;-143.51;100.00
44309;BME280;30022;55.846;37.340;2023-06-01T01:28:42;84581.66;;;-143.51;100.00
44309;BME280;30022;55.846;37.340;2023-06-01T01:31:13;84232.75;;;-143.51;100.00
44309;BME280;30022;55.846;37.340;2023-06-01T01:33:41;82476.81;;;-143.51;100.00
44309;BME280;30022;55.846;37.340;2023-06-01T01:36:08;80747.50;;;-143.51;100.00
44309;BME280;30022;55.846;37.340;2023-06-01T01:38:41;81082.16;;;-143.51;100.00
44309;BME280;30022;55.846;37.340;2023-06-01T01:41:06;83234.09;;;-143.51;100.00
44309;BME280;30022;55.846;37.340;2023-06-01T01:43:32;77334.94;;;-143.51;100.00
44309;BME280;30022;55.846;37.340;2023-06-01T01:48:36;78375.94;;;-143.51;100.00
44309;BME280;30022;55.846;37.340;2023-06-01T01:51:13;77050.38;;;-143.51;100.00
44309;BME280;30022;55.846;37.340;2023-06-01T01:56:43;74794.34;;;-143.51;100.00
44309;BME280;30022;55.846;37.340;2023-06-01T01:59:10;73728.44;;;-143.51;100.00
44309;BME280;30022;55.846;37.340;2023-06-01T02:01:38;74144.03;;;-143.51;100.00
44309;BME280;30022;55.846;37.340;2023-06-01T02:04:10;72213.59;;;-143.51;100.00
44309;BME280;30022;55.846;37.340;2023-06-01T02:06:36;71696.84;;;-143.51;100.00
44309;BME280;30022;55.846;37.340;2023-06-01T02:09:05;71146.38;;;-143.51;100.00
44309;BME280;30022;55.846;37.340;2023-06-01T02:11:34;71076.84;;;-143.51;100.00
44309;BME280;30022;55.846;37.340;2023-06-01T02:14:00;69555.06;;;-143.51;100.00
44309;BME280;30022;55.846;37.340;2023-06-01T02:16:25;68494.53;;;-143.51;100.00
44309;BME280;30022;55.846;37.340;2023-06-01T02:18:51;68540.19;;;-143.51;100.00
44309;BME280;30022;55.846;37.340;2023-06-01T02:21:17;66646.22;;;-143.51;100.00
44309;BME280;30022;55.846;37.340;2023-06-01T02:23:43;66249.28;;;-143.51;100.00
44309;BME280;30022;55.846;37.340;2023-06-01T02:26:10;67916.72;;;-143.51;100.00
44309;BME280;30022;55.846;37.340;2023-06-01T02:28:36;64874.16;;;-143.51;100.00
44309;BME280;30022;55.846;37.340;2023-06-01T02:31:04;63876.34;;;-143.51;100.00
44309;BME280;30022;55.846;37.340;2023-06-01T02:33:30;61489.00;;;-143.51;100.00
44309;BME280;30022;55.846;37.340;2023-06-01T02:35:56;61126.25;;;-143.51;100.00
44309;BME280;30022;55.846;37.340;2023-06-01T02:38:21;60176.94;;;-143.51;100.00
44309;BME280;30022;55.846;37.340;2023-06-01T02:40:47;59735.06;;;-143.51;100.00
44309;BME280;30022;55.846;37.340;2023-06-01T02:43:13;61015.25;;;-143.51;100.00
44309;BME280;30022;55.846;37.340;2023-06-01T02:45:39;59911.41;;;-143.51;100.00
44309;BME280;30022;55.846;37.340;2023-06-01T02:48:04;58956.47;;;-143.51;100.00
44309;BME280;30022;55.846;37.340;2023-06-01T02:50:31;57171.97;;;-143.51;100.00
44309;BME280;30022;55.846;37.340;2023-06-01T02:52:56;56688.84;;;-143.51;100.00
44309;BME280;30022;55.846;37.340;2023-06-01T02:55:22;57280.88;;;-143.51;100.00
44309;BME280;30022;55.846;37.340;2023-06-01T02:58:17;56766.06;;;-143.51;100.00
44309;BME280;30022;55.846;37.340;2023-06-01T03:00:57;55681.22;;;-143.51;100.00
44309;BME280;30022;55.846;37.340;2023-06-01T03:06:30;55410.06;;;-143.51;100.00
44309;BME280;30022;55.846;37.340;2023-06-01T03:09:15;56237.47;;;-143.51;100.00
44309;BME280;30022;55.846;37.340;2023-06-01T03:12:00;54470.03;;;-143.51;100.00
44309;BME280;30022;55.846;37.340;2023-06-01T03:14:28;53136.59;;;-143.51;100.00
44309;BME280;30022;55.846;37.340;2023-06-01T03:16:53;53601.47;;;-143.51;100.00
44309;BME280;30022;55.846;37.340;2023-06-01T03:19:21;53122.75;;;-143.51;100.00
44309;BME280;30022;55.846;37.340;2023-06-01T03:21:50;52260.38;;;-143.51;100.00
44309;BME280;30022;55.846;37.340;2023-06-01T03:24:19;52163.47;;;-143.51;100.00
44309;BME280;30022;55.846;37.340;2023-06-01T03:26:46;52472.00;;;-143.51;100.00
44309;BME280;30022;55.846;37.340;2023-06-01T03:29:12;51093.72;;;-143.51;100.00
44309;BME280;30022;55.846;37.340;2023-06-01T03:31:38;50814.97;;;-143.51;100.00
44309;BME280;30022;55.846;37.340;2023-06-01T03:34:04;50119.16;;;-143.51;100.00
44309;BME280;30022;55.846;37.340;2023-06-01T03:36:30;50639.03;;;-143.51;100.00
44309;BME280;30022;55.846;37.340;2023-06-01T03:38:57;50658.81;;;-143.51;100.00
44309;BME280;30022;55.846;37.340;2023-06-01T03:41:25;50510.53;;;-143.51;100.00
44309;BME280;30022;55.846;37.340;2023-06-01T03:43:51;49710.03;;;-143.51;100.00
44309;BME280;30022;55.846;37.340;2023-06-01T03:46:17;48682.44;;;-143.51;100.00
44309;BME280;30022;55.846;37.340;2023-06-01T03:48:43;48135.16;;;-143.51;100.00
44309;BME280;30022;55.846;37.340;2023-06-01T03:51:09;48524.38;;;-143.51;100.00
44309;BME280;30022;55.846;37.340;2023-06-01T03:53:35;48066.00;;;-143.51;100.00
44309;BME280;30022;55.846;37.340;2023-06-01T03:56:02;46805.81;;;-143.51;100.00
44309;BME280;30022;55.846;37.340;2023-06-01T03:58:30;46616.22;;;-143.51;100.00
44309;BME280;30022;55.846;37.340;2023-06-01T04:00:56;47080.34;;;-143.51;100.00
44309;BME280;30022;55.846;37.340;2023-06-01T04:03:30;47032.94;;;-143.51;100.00
44309;BME280;30022;55.846;37.340;2023-06-01T04:05:56;47086.25;;;-143.51;100.00
44309;BME280;30022;55.846;37.340;2023-06-01T04:08:25;46343.69;;;-143.51;100.00
44309;BME280;30022;55.846;37.340;2023-06-01T04:10:52;44675.44;;;-143.51;100.00
44309;BME280;30022;55.846;37.340;2023-06-01T04:13:17;44870.84;;;-143.51;100.00
44309;BME280;30022;55.846;37.340;2023-06-01T04:15:44;44367.53;;;-143.51;100.00
44309;BME280;30022;55.846;37.340;2023-06-01T04:18:11;45247.91;;;-143.51;100.00
44309;BME280;30022;55.846;37.340;2023-06-01T04:20:57;44120.81;;;-143.51;100.00
44309;BME280;30022;55.846;37.340;2023-06-01T04:23:22;44424.75;;;-143.51;100.00
44309;BME280;30022;55.846;37.340;2023-06-01T04:25:48;43469.59;;;-143.51;100.00
44309;BME280;30022;55.846;37.340;2023-06-01T04:28:18;43244.63;;;-143.51;100.00
44309;BME280;30022;55.846;37.340;2023-06-01T04:30:44;43439.97;;;-143.51;100.00
44309;BME280;30022;55.846;37.340;2023-06-01T04:33:10;43370.91;;;-143.51;100.00
44309;BME280;30022;55.846;37.340;2023-06-01T04:35:36;42875.69;;;-143.51;100.00
44309;BME280;30022;55.846;37.340;2023-06-01T04:38:03;42893.44;;;-143.51;100.00
44309;BME280;30022;55.846;37.340;2023-06-01T04:40:29;43009.84;;;-143.51;100.00
44309;BME280;30022;55.846;37.340;2023-06-01T04:42:55;42560.00;;;-143.51;100.00
44309;BME280;30022;55.846;37.340;2023-06-01T04:45:28;42185.19;;;-143.51;100.00
44309;BME280;30022;55.846;37.340;2023-06-01T04:47:56;42350.91;;;-143.51;100.00
44309;BME280;30022;55.846;37.340;2023-06-01T04:50:49;41867.63;;;-143.51;100.00
44309;BME280;30022;55.846;37.340;2023-06-01T04:53:14;42260.16;;;-143.51;100.00
44309;BME280;30022;55.846;37.340;2023-06-01T04:55:40;41853.81;;;-143.51;100.00
44309;BME280;30022;55.846;37.340;2023-06-01T04:58:09;41999.78;;;-143.51;100.00
44309;BME280;30022;55.846;37.340;2023-06-01T05:00:35;41859.72;;;-143.51;100.00
44309;BME280;30022;55.846;37.340;2023-06-01T05:03:01;41646.72;;;-143.51;100.00
44309;BME280;30022;55.846;37.340;2023-06-01T05:05:28;41634.88;;;-143.51;100.00
44309;BME280;30022;55.846;37.340;2023-06-01T05:07:54;41954.41;;;-143.51;100.00
44309;BME280;30022;55.846;37.340;2023-06-01T05:10:19;42804.66;;;-143.51;100.00
44309;BME280;30022;55.846;37.340;2023-06-01T05:12:46;42169.41;;;-143.51;100.00
44309;BME280;30022;55.846;37.340;2023-06-01T05:15:15;41830.16;;;-143.51;100.00
44309;BME280;30022;55.846;37.340;2023-06-01T05:17:42;42638.94;;;-143.51;100.00
44309;BME280;30022;55.846;37.340;2023-06-01T05:20:13;42260.16;;;-143.51;100.00
44309;BME280;30022;55.846;37.340;2023-06-01T05:22:42;42100.38;;;-143.51;100.00
44309;BME280;30022;55.846;37.340;2023-06-01T05:25:08;42092.50;;;-143.51;100.00
44309;BME280;30022;55.846;37.340;2023-06-01T05:27:34;42167.44;;;-143.51;100.00
44309;BME280;30022;55.846;37.340;2023-06-01T05:30:01;42224.66;;;-143.51;100.00
44309;BME280;30022;55.846;37.340;2023-06-01T05:32:28;43434.06;;;-143.51;100.00
44309;BME280;30022;55.846;37.340;2023-06-01T05:35:01;43493.25;;;-143.51;100.00
44309;BME280;30022;55.846;37.340;2023-06-01T05:37:27;43522.88;;;-143.51;100.00
44309;BME280;30022;55.846;37.340;2023-06-01T05:39:53;43394.59;;;-143.51;100.00
44309;BME280;30022;55.846;37.340;2023-06-01T05:42:19;43280.16;;;-143.51;100.00
44309;BME280;30022;55.846;37.340;2023-06-01T05:44:44;43749.78;;;-143.51;100.00
44309;BME280;30022;55.846;37.340;2023-06-01T05:47:10;43130.19;;;-143.51;100.00
44309;BME280;30022;55.846;37.340;2023-06-01T05:49:36;43455.78;;;-143.51;100.00
44309;BME280;30022;55.846;37.340;2023-06-01T05:52:03;43854.38;;;-143.51;100.00
44309;BME280;30022;55.846;37.340;2023-06-01T05:54:29;43919.50;;;-143.51;100.00
44309;BME280;30022;55.846;37.340;2023-06-01T05:56:55;44620.16;;;-143.51;100.00
44309;BME280;30022;55.846;37.340;2023-06-01T05:59:21;43649.16;;;-143.51;100.00
44309;BME280;30022;55.846;37.340;2023-06-01T06:01:47;44612.28;;;-143.51;100.00
44309;BME280;30022;55.846;37.340;2023-06-01T06:04:13;44762.28;;;-143.51;100.00
44309;BME280;30022;55.846;37.340;2023-06-01T06:06:39;44760.31;;;-143.51;100.00
44309;BME280;30022;55.846;37.340;2023-06-01T06:09:04;44997.19;;;-143.51;100.00
44309;BME280;30022;55.846;37.340;2023-06-01T06:11:30;45729.63;;;-143.51;100.00
44309;BME280;30022;55.846;37.340;2023-06-01T06:13:56;45903.38;;;-143.51;100.00
44309;BME280;30022;55.846;37.340;2023-06-01T06:16:22;45492.69;;;-143.51;100.00
44309;BME280;30022;55.846;37.340;2023-06-01T06:18:49;45546.00;;;-143.51;100.00
44309;BME280;30022;55.846;37.340;2023-06-01T06:21:15;45536.13;;;-143.51;100.00
44309;BME280;30022;55.846;37.340;2023-06-01T06:23:43;45741.47;;;-143.51;100.00
44309;BME280;30022;55.846;37.340;2023-06-01T06:26:10;46347.66;;;-143.51;100.00
44309;BME280;30022;55.846;37.340;2023-06-01T06:28:35;46610.28;;;-143.51;100.00
44309;BME280;30022;55.846;37.340;2023-06-01T06:31:01;46452.31;;;-143.51;100.00
44309;BME280;30022;55.846;37.340;2023-06-01T06:33:27;46389.13;;;-143.51;100.00
44309;BME280;30022;55.846;37.340;2023-06-01T06:35:52;46349.63;;;-143.51;100.00
44309;BME280;30022;55.846;37.340;2023-06-01T06:38:18;46331.84;;;-143.51;100.00
44309;BME280;30022;55.846;37.340;2023-06-01T06:40:43;46162.03;;;-143.51;100.00
44309;BME280;30022;55.846;37.340;2023-06-01T06:43:09;46414.78;;;-143.51;100.00
44309;BME280;30022;55.846;37.340;2023-06-01T06:45:35;46347.66;;;-143.51;100.00
44309;BME280;30022;55.846;37.340;2023-06-01T06:48:00;46304.22;;;-143.51;100.00
44309;BME280;30022;55.846;37.340;2023-06-01T06:50:26;46624.13;;;-143.51;100.00
44309;BME280;30022;55.846;37.340;2023-06-01T06:52:51;46728.78;;;-143.51;100.00
44309;BME280;30022;55.846;37.340;2023-06-01T06:55:17;46890.72;;;-143.51;100.00
44309;BME280;30022;55.846;37.340;2023-06-01T06:57:43;46865.06;;;-143.51;100.00
44309;BME280;30022;55.846;37.340;2023-06-01T07:00:08;46841.34;;;-143.51;100.00
44309;BME280;30022;55.846;37.340;2023-06-01T07:02:42;46882.84;;;-143.51;100.00
44309;BME280;30022;55.846;37.340;2023-06-01T07:05:09;46971.72;;;-143.51;100.00
44309;BME280;30022;55.846;37.340;2023-06-01T07:07:36;46894.69;;;-143.51;100.00
44309;BME280;30022;55.846;37.340;2023-06-01T07:10:05;46934.19;;;-143.51;100.00
44309;BME280;30022;55.846;37.340;2023-06-01T07:12:31;46918.38;;;-143.51;100.00
44309;BME280;30022;55.846;37.340;2023-06-01T07:14:57;46948.00;;;-143.51;100.00
44309;BME280;30022;55.846;37.340;2023-06-01T07:17:22;46942.09;;;-143.51;100.00
44309;BME280;30022;55.846;37.340;2023-06-01T07:19:48;46975.66;;;-143.51;100.00
44309;BME280;30022;55.846;37.340;2023-06-01T07:22:13;46969.72;;;-143.51;100.00
44309;BME280;30022;55.846;37.340;2023-06-01T07:24:39;46969.72;;;-143.51;100.00
44309;BME280;30022;55.846;37.340;2023-06-01T07:27:05;46971.72;;;-143.51;100.00
44309;BME280;30022;55.846;37.340;2023-06-01T07:29:30;46973.69;;;-143.51;100.00
44309;BME280;30022;55.846;37.340;2023-06-01T07:31:57;46940.09;;;-143.51;100.00
44309;BME280;30022;55.846;37.340;2023-06-01T07:34:23;46983.56;;;-143.51;100.00
44309;BME280;30022;55.846;37.340;2023-06-01T07:36:50;46971.72;;;-143.51;100.00
44309;BME280;30022;55.846;37.340;2023-06-01T07:39:15;46949.97;;;-143.51;100.00
44309;BME280;30022;55.846;37.340;2023-06-01T07:41:43;46951.97;;;-143.51;100.00
44309;BME280;30022;55.846;37.340;2023-06-01T07:44:09;46953.94;;;-143.51;100.00
44309;BME280;30022;55.846;37.340;2023-06-01T07:46:35;46934.19;;;-143.51;100.00
44309;BME280;30022;55.846;37.340;2023-06-01T07:49:01;46953.94;;;-143.51;100.00
44309;BME280;30022;55.846;37.340;2023-06-01T07:51:29;47005.28;;;-143.51;100.00
44309;BME280;30022;55.846;37.340;2023-06-01T07:53:56;46957.88;;;-143.51;100.00
44309;BME280;30022;55.846;37.340;2023-06-01T07:56:23;46942.09;;;-143.51;100.00
44309;BME280;30022;55.846;37.340;2023-06-01T07:58:54;46957.88;;;-143.51;100.00
44309;BME280;30022;55.846;37.340;2023-06-01T08:01:19;46957.88;;;-143.51;100.00
44309;BME280;30022;55.846;37.340;2023-06-01T08:03:45;46930.22;;;-143.51;100.00
44309;BME280;30022;55.846;37.340;2023-06-01T08:06:11;46922.34;;;-143.51;100.00
44309;BME280;30022;55.846;37.340;2023-06-01T08:08:37;46942.09;;;-143.51;100.00
44309;BME280;30022;55.846;37.340;2023-06-01T08:11:03;46940.09;;;-143.51;100.00
44309;BME280;30022;55.846;37.340;2023-06-01T08:13:28;46959.84;;;-143.51;100.00
44309;BME280;30022;55.846;37.340;2023-06-01T08:15:54;46979.59;;;-143.51;100.00
44309;BME280;30022;55.846;37.340;2023-06-01T08:18:20;46973.69;;;-143.51;100.00
44309;BME280;30022;55.846;37.340;2023-06-01T08:20:47;46918.38;;;-143.51;100.00
44309;BME280;30022;55.846;37.340;2023-06-01T08:23:13;46936.16;;;-143.51;100.00
44309;BME280;30022;55.846;37.340;2023-06-01T08:25:42;46949.97;;;-143.51;100.00
44309;BME280;30022;55.846;37.340;2023-06-01T08:28:08;46951.97;;;-143.51;100.00
44309;BME280;30022;55.846;37.340;2023-06-01T08:30:34;46957.88;;;-143.51;100.00
44309;BME280;30022;55.846;37.340;2023-06-01T08:32:59;46930.22;;;-143.51;100.00
44309;BME280;30022;55.846;37.340;2023-06-01T08:35:28;46948.00;;;-143.51;100.00
44309;BME280;30022;55.846;37.340;2023-06-01T08:37:55;46967.75;;;-143.51;100.00
44309;BME280;30022;55.846;37.340;2023-06-01T08:40:21;46934.19;;;-143.51;100.00
44309;BME280;30022;55.846;37.340;2023-06-01T08:45:45;46918.38;;;-143.51;100.00
44309;BME280;30022;55.846;37.340;2023-06-01T08:48:16;46949.97;;;-143.51;100.00
44309;BME280;30022;55.846;37.340;2023-06-01T08:50:44;46951.97;;;-143.51;100.00
44309;BME280;30022;55.846;37.340;2023-06-01T08:53:09;46924.31;;;-143.51;100.00
44309;BME280;30022;55.846;37.340;2023-06-01T08:55:35;46902.59;;;-143.51;100.00
44309;BME280;30022;55.846;37.340;2023-06-01T08:58:01;46928.25;;;-143.51;100.00
44309;BME280;30022;55.846;37.340;2023-06-01T09:00:27;46955.91;;;-143.51;100.00
44309;BME280;30022;55.846;37.340;2023-06-01T09:02:55;46926.28;;;-143.51;100.00
44309;BME280;30022;55.846;37.340;2023-06-01T09:05:21;46890.72;;;-143.51;100.00
44309;BME280;30022;55.846;37.340;2023-06-01T09:07:47;46914.44;;;-143.51;100.00
44309;BME280;30022;55.846;37.340;2023-06-01T09:10:19;46914.44;;;-143.51;100.00
44309;BME280;30022;55.846;37.340;2023-06-01T09:12:51;46918.38;;;-143.51;100.00
44309;BME280;30022;55.846;37.340;2023-06-01T09:15:18;46906.53;;;-143.51;100.00
44309;BME280;30022;55.846;37.340;2023-06-01T09:17:45;46924.31;;;-143.51;100.00
44309;BME280;30022;55.846;37.340;2023-06-01T09:20:25;46938.13;;;-143.51;100.00
44309;BME280;30022;55.846;37.340;2023-06-01T09:22:51;46924.31;;;-143.51;100.00
44309;BME280;30022;55.846;37.340;2023-06-01T09:25:18;46926.28;;;-143.51;100.00
44309;BME280;30022;55.846;37.340;2023-06-01T09:27:49;46949.97;;;-143.51;100.00
44309;BME280;30022;55.846;37.340;2023-06-01T09:30:17;46938.13;;;-143.51;100.00
44309;BME280;30022;55.846;37.340;2023-06-01T09:32:43;46944.06;;;-143.51;100.00
44309;BME280;30022;55.846;37.340;2023-06-01T09:35:10;46928.25;;;-143.51;100.00
44309;BME280;30022;55.846;37.340;2023-06-01T09:37:36;46955.91;;;-143.51;99.08
44309;BME280;30022;55.846;37.340;2023-06-01T09:40:02;46959.84;;;-143.51;100.00
44309;BME280;30022;55.846;37.340;2023-06-01T09:42:41;46985.53;;;-143.51;100.00
44309;BME280;30022;55.846;37.340;2023-06-01T09:45:19;46959.84;;;-143.51;97.92
44309;BME280;30022;55.846;37.340;2023-06-01T09:47:46;46963.81;;;-143.51;98.50
44309;BME280;30022;55.846;37.340;2023-06-01T09:50:13;46973.69;;;-143.51;98.84
44309;BME280;30022;55.846;37.340;2023-06-01T09:52:59;46924.31;;;-143.51;96.81
44309;BME280;30022;55.846;37.340;2023-06-01T09:55:25;46953.94;;;-143.51;97.86
44309;BME280;30022;55.846;37.340;2023-06-01T09:57:51;46918.38;;;-143.51;94.44
44309;BME280;30022;55.846;37.340;2023-06-01T10:00:23;46918.38;;;-143.51;93.48
44309;BME280;30022;55.846;37.340;2023-06-01T10:02:50;46914.44;;;-143.51;92.50
44309;BME280;30022;55.846;37.340;2023-06-01T10:05:17;46944.06;;;-143.51;93.29
44309;BME280;30022;55.846;37.340;2023-06-01T10:07:43;46932.22;;;-143.51;94.81
44309;BME280;30022;55.846;37.340;2023-06-01T10:10:09;46965.78;;;-143.51;95.33
44309;BME280;30022;55.846;37.340;2023-06-01T10:12:38;46959.84;;;-143.51;92.14
44309;BME280;30022;55.846;37.340;2023-06-01T10:15:04;46928.25;;;-143.51;89.68
44309;BME280;30022;55.846;37.340;2023-06-01T10:17:31;46955.91;;;-143.51;89.21
44309;BME280;30022;55.846;37.340;2023-06-01T10:19:57;46985.53;;;-143.51;87.80
44309;BME280;30022;55.846;37.340;2023-06-01T10:22:23;46955.91;;;-143.51;86.88
44309;BME280;30022;55.846;37.340;2023-06-01T10:24:48;46953.94;;;-143.51;88.46
44309;BME280;30022;55.846;37.340;2023-06-01T10:27:51;46969.72;;;-143.51;87.16
44309;BME280;30022;55.846;37.340;2023-06-01T10:30:09;46934.19;;;-143.51;85.08
44309;BME280;30022;55.846;37.340;2023-06-01T10:35:03;46969.72;;;-143.51;84.39
44309;BME280;30022;55.846;37.340;2023-06-01T10:37:29;46953.94;;;-143.51;81.11
44309;BME280;30022;55.846;37.340;2023-06-01T10:42:39;46926.28;;;-143.51;82.32
44309;BME280;30022;55.846;37.340;2023-06-01T10:45:05;46942.09;;;-143.51;81.43
44309;BME280;30022;55.846;37.340;2023-06-01T10:54:56;46959.84;;;-143.51;81.81
44309;BME280;30022;55.846;37.340;2023-06-01T10:57:41;46971.72;;;-143.51;78.97
44309;BME280;30022;55.846;37.340;2023-06-01T11:02:47;46969.72;;;-143.51;79.82
44309;BME280;30022;55.846;37.340;2023-06-01T11:07:58;46993.44;;;-143.51;77.28
44309;BME280;30022;55.846;37.340;2023-06-01T11:11:09;46979.59;;;-143.51;77.73
44309;BME280;30022;55.846;37.340;2023-06-01T11:13:11;46983.56;;;-143.51;78.46
44309;BME280;30022;55.846;37.340;2023-06-01T11:15:37;47001.34;;;-143.51;78.46
44309;BME280;30022;55.846;37.340;2023-06-01T11:20:49;46989.47;;;-143.51;74.99
44309;BME280;30022;55.846;37.340;2023-06-01T11:23:15;46967.75;;;-143.51;76.52
44309;BME280;30022;55.846;37.340;2023-06-01T11:25:41;46975.66;;;-143.51;77.63
44309;BME280;30022;55.846;37.340;2023-06-01T11:28:07;47013.19;;;-143.51;77.94
44309;BME280;30022;55.846;37.340;2023-06-01T11:30:34;47005.28;;;-143.51;75.51
44309;BME280;30022;55.846;37.340;2023-06-01T11:33:00;46973.69;;;-143.51;73.95
44309;BME280;30022;55.846;37.340;2023-06-01T11:35:29;46993.44;;;-143.51;76.72
44309;BME280;30022;55.846;37.340;2023-06-01T11:37:55;46971.72;;;-143.51;77.14
44309;BME280;30022;55.846;37.340;2023-06-01T11:40:21;46997.38;;;-143.51;76.91
44309;BME280;30022;55.846;37.340;2023-06-01T11:42:47;46977.63;;;-143.51;77.04
44309;BME280;30022;55.846;37.340;2023-06-01T11:45:17;47001.34;;;-143.51;77.42
44309;BME280;30022;55.846;37.340;2023-06-01T11:47:43;47027.00;;;-143.51;76.13
44309;BME280;30022;55.846;37.340;2023-06-01T11:50:23;47034.91;;;-143.51;76.15
44309;BME280;30022;55.846;37.340;2023-06-01T11:52:49;47005.28;;;-143.51;74.92
44309;BME280;30022;55.846;37.340;2023-06-01T11:55:15;46989.47;;;-143.51;73.84
44309;BME280;30022;55.846;37.340;2023-06-01T11:57:42;46987.50;;;-143.51;76.16
44309;BME280;30022;55.846;37.340;2023-06-01T12:00:10;46997.38;;;-143.51;76.88
44309;BME280;30022;55.846;37.340;2023-06-01T12:02:39;47036.88;;;-143.51;75.93
44309;BME280;30022;55.846;37.340;2023-06-01T12:05:06;47013.19;;;-143.51;72.51
44309;BME280;30022;55.846;37.340;2023-06-01T12:10:13;47025.03;;;-143.51;72.26
44309;BME280;30022;55.846;37.340;2023-06-01T12:12:41;47021.09;;;-143.51;72.84
44309;BME280;30022;55.846;37.340;2023-06-01T12:15:09;47019.09;;;-143.51;71.20
44309;BME280;30022;55.846;37.340;2023-06-01T12:17:48;47028.97;;;-143.51;71.07
44309;BME280;30022;55.846;37.340;2023-06-01T12:22:56;46995.41;;;-143.51;75.72
44309;BME280;30022;55.846;37.340;2023-06-01T12:25:22;46997.38;;;-143.51;73.44
44309;BME280;30022;55.846;37.340;2023-06-01T12:30:26;46965.78;;;-143.51;74.60
44309;BME280;30022;55.846;37.340;2023-06-01T12:32:51;46983.56;;;-143.51;73.04
44309;BME280;30022;55.846;37.340;2023-06-01T12:35:17;47019.09;;;-143.51;73.16
44309;BME280;30022;55.846;37.340;2023-06-01T12:37:43;46997.38;;;-143.51;72.21
44309;BME280;30022;55.846;37.340;2023-06-01T12:40:09;46997.38;;;-143.51;71.65
44309;BME280;30022;55.846;37.340;2023-06-01T12:42:39;46985.53;;;-143.51;73.34
44309;BME280;30022;55.846;37.340;2023-06-01T12:45:05;47019.09;;;-143.51;72.22
44309;BME280;30022;55.846;37.340;2023-06-01T12:47:34;47062.56;;;-143.51;72.35
44309;BME280;30022;55.846;37.340;2023-06-01T12:50:04;47025.03;;;-143.51;73.46
44309;BME280;30022;55.846;37.340;2023-06-01T12:52:30;46991.47;;;-143.51;71.83
44309;BME280;30022;55.846;37.340;2023-06-01T12:54:56;47021.09;;;-143.51;72.58
44309;BME280;30022;55.846;37.340;2023-06-01T12:57:22;47032.94;;;-143.51;69.92
44309;BME280;30022;55.846;37.340;2023-06-01T12:59:48;47042.81;;;-143.51;70.85
44309;BME280;30022;55.846;37.340;2023-06-01T13:02:14;47058.59;;;-143.51;71.25
44309;BME280;30022;55.846;37.340;2023-06-01T13:04:39;47032.94;;;-143.51;71.22
44309;BME280;30022;55.846;37.340;2023-06-01T13:07:05;47080.34;;;-143.51;72.44
44309;BME280;30022;55.846;37.340;2023-06-01T13:09:31;47052.69;;;-143.51;70.78
44309;BME280;30022;55.846;37.340;2023-06-01T13:11:57;47034.91;;;-143.51;70.92
44309;BME280;30022;55.846;37.340;2023-06-01T13:14:23;47060.59;;;-143.51;71.37
44309;BME280;30022;55.846;37.340;2023-06-01T13:16:49;47064.53;;;-143.51;69.99
44309;BME280;30022;55.846;37.340;2023-06-01T13:19:14;47048.72;;;-143.51;67.30